Time;durP1;ratioP1;P1;durP2;ratioP2;P2;SDS_P1;SDS_P2;PMS_P1;PMS_P2;Temp;Humidity;BMP_temperature;BMP_pressure;BME280_temperature;BME280_humidity;BME280_pressure;Samples;Min_cycle;Max_cycle;Signal;HPM_P1;HPM_P2
2022/03/18 00:00:21;;;;;;;101.95;58.30;;;5.70;83.90;;;;;;6283495;22;20054;-68
2022/03/18 00:02:48;;;;;;;109.38;61.42;;;5.70;83.90;;;;;;6309806;22;20365;-68
2022/03/18 00:05:14;;;;;;;99.88;56.60;;;5.70;84.70;;;;;;6309919;22;20007;-68
2022/03/18 00:07:40;;;;;;;114.40;61.45;;;5.70;85.20;;;;;;6310240;22;20034;-68
2022/03/18 00:10:07;;;;;;;91.80;54.13;;;5.60;85.50;;;;;;6309073;22;20007;-68
2022/03/18 00:12:33;;;;;;;102.47;59.47;;;5.60;85.20;;;;;;6310061;22;20264;-69
2022/03/18 00:14:59;;;;;;;82.68;52.38;;;5.60;85.40;;;;;;6310234;22;20005;-68
2022/03/18 00:17:25;;;;;;;79.38;49.40;;;5.60;84.70;;;;;;6310107;22;20006;-68
2022/03/18 00:19:58;;;;;;;87.22;52.25;;;5.70;85.10;;;;;;6283098;22;20060;-68
2022/03/18 00:22:24;;;;;;;78.90;49.75;;;5.70;85.50;;;;;;6283389;22;20007;-68
2022/03/18 00:24:50;;;;;;;78.82;48.78;;;5.60;85.90;;;;;;6308683;22;20015;-68
2022/03/18 00:27:16;;;;;;;74.38;47.65;;;5.60;85.50;;;;;;6310454;22;20027;-68
2022/03/18 00:29:42;;;;;;;73.15;47.30;;;5.60;85.70;;;;;;6310307;22;20306;-67
2022/03/18 00:32:11;;;;;;;89.75;52.70;;;5.70;86.00;;;;;;6310790;22;20010;-68
2022/03/18 00:34:37;;;;;;;92.05;53.13;;;5.60;86.30;;;;;;6310327;22;19999;-67
2022/03/18 00:37:05;;;;;;;108.22;57.33;;;5.60;86.30;;;;;;6310236;22;20114;-68
2022/03/18 00:39:31;;;;;;;89.45;51.10;;;5.60;86.70;;;;;;6309142;22;20086;-67
2022/03/18 00:41:56;;;;;;;77.15;49.53;;;5.60;86.40;;;;;;6310472;22;20034;-67
2022/03/18 00:44:25;;;;;;;76.03;49.30;;;5.70;86.40;;;;;;6309823;22;20007;-66
2022/03/18 00:46:54;;;;;;;101.95;56.63;;;5.70;85.70;;;;;;6309800;22;20421;-66
2022/03/18 00:52:05;;;;;;;107.47;58.85;;;5.70;87.40;;;;;;6309194;22;20452;-68
2022/03/18 00:54:39;;;;;;;109.70;60.25;;;5.60;87.20;;;;;;6308458;22;20007;-68
2022/03/18 00:57:05;;;;;;;;;;;5.60;87.30;;;;;;6310003;22;19999;-68
2022/03/18 00:59:31;;;;;;;149.25;71.65;;;5.70;87.10;;;;;;6310324;22;19980;-69
2022/03/18 01:01:57;;;;;;;123.63;65.20;;;5.70;87.30;;;;;;6310199;22;20026;-68
2022/03/18 01:04:24;;;;;;;120.95;64.30;;;5.70;86.80;;;;;;6310226;22;20295;-68
2022/03/18 01:06:52;;;;;;;121.72;64.82;;;5.70;86.90;;;;;;6310086;22;20050;-68
2022/03/18 01:09:19;;;;;;;115.68;62.50;;;5.70;86.30;;;;;;6308924;22;20003;-67
2022/03/18 01:11:45;;;;;;;122.00;63.97;;;5.70;86.30;;;;;;6309466;22;19999;-68
2022/03/18 01:14:14;;;;;;;110.72;58.58;;;5.70;86.60;;;;;;6309899;22;20007;-67
2022/03/18 01:16:40;;;;;;;105.80;57.50;;;5.60;86.90;;;;;;6310179;22;19999;-68
2022/03/18 01:19:05;;;;;;;125.63;64.93;;;5.60;86.20;;;;;;6310433;22;20452;-68
2022/03/18 01:21:31;;;;;;;103.15;57.40;;;5.60;85.80;;;;;;6310194;22;20007;-68
2022/03/18 01:23:57;;;;;;;149.95;69.32;;;5.70;85.60;;;;;;6312074;22;20038;-67
2022/03/18 01:26:24;;;;;;;113.47;61.28;;;5.60;86.10;;;;;;6310699;22;20007;-67
2022/03/18 01:28:50;;;;;;;101.80;57.72;;;5.60;85.90;;;;;;6312054;22;20009;-68
2022/03/18 01:31:16;;;;;;;120.18;64.22;;;5.60;85.90;;;;;;6312281;22;19996;-68
2022/03/18 01:33:42;;;;;;;82.18;51.45;;;5.60;85.70;;;;;;6312540;22;20264;-68
2022/03/18 01:36:07;;;;;;;113.38;62.38;;;5.70;85.70;;;;;;6311877;22;20004;-68
2022/03/18 01:38:33;;;;;;;92.53;57.38;;;5.70;86.30;;;;;;6312405;22;20011;-68
2022/03/18 01:40:59;;;;;;;108.60;58.63;;;5.70;85.40;;;;;;6310265;22;20070;-67
2022/03/18 01:43:27;;;;;;;109.15;58.70;;;5.70;86.10;;;;;;6312235;22;20003;-67
2022/03/18 01:45:53;;;;;;;118.50;62.55;;;5.70;87.00;;;;;;6311781;22;20006;-68
2022/03/18 01:48:18;;;;;;;112.65;59.90;;;5.70;86.60;;;;;;6312001;22;20000;-67
2022/03/18 01:50:45;;;;;;;112.15;60.85;;;5.60;86.70;;;;;;6312153;22;20090;-68
2022/03/18 01:53:11;;;;;;;114.00;59.65;;;5.60;86.60;;;;;;6312332;22;19999;-67
2022/03/18 01:55:37;;;;;;;86.78;52.92;;;5.60;86.50;;;;;;6310983;22;20248;-68
2022/03/18 01:58:04;;;;;;;110.57;58.33;;;5.60;86.10;;;;;;6311900;22;20000;-68
2022/03/18 02:00:30;;;;;;;106.05;56.25;;;5.60;86.50;;;;;;6311035;22;20029;-67
2022/03/18 02:02:57;;;;;;;89.72;50.95;;;5.70;86.10;;;;;;6311970;22;20003;-68
2022/03/18 02:05:23;;;;;;;115.03;56.45;;;5.60;86.10;;;;;;6312223;22;20007;-68
2022/03/18 02:07:48;;;;;;;123.03;57.30;;;5.60;85.60;;;;;;6311892;22;20035;-68
2022/03/18 02:10:14;;;;;;;143.25;60.65;;;5.60;85.50;;;;;;6309880;22;20003;-68
2022/03/18 02:12:41;;;;;;;117.25;56.10;;;5.60;85.30;;;;;;6311930;22;20023;-67
2022/03/18 02:15:09;;;;;;;104.75;53.95;;;5.60;84.60;;;;;;6311638;22;20003;-68
2022/03/18 02:17:37;;;;;;;90.63;51.75;;;5.70;84.10;;;;;;6311909;22;20019;-68
2022/03/18 02:20:03;;;;;;;95.95;51.53;;;5.70;84.00;;;;;;6311521;22;20053;-67
2022/03/18 02:22:41;;;;;;;98.72;52.05;;;5.70;84.40;;;;;;6311719;22;20033;-68
2022/03/18 02:25:14;;;;;;;91.82;49.55;;;5.70;84.30;;;;;;6310297;22;20007;-68
2022/03/18 02:27:52;;;;;;;107.00;53.60;;;5.60;84.90;;;;;;6284768;22;20404;-67
2022/03/18 02:30:17;;;;;;;109.65;53.33;;;5.60;84.60;;;;;;6311112;22;20006;-68
2022/03/18 02:32:43;;;;;;;124.15;55.17;;;5.60;84.00;;;;;;6311651;22;20000;-66
2022/03/18 02:35:09;;;;;;;96.78;50.55;;;5.60;84.20;;;;;;6311048;22;20353;-69
2022/03/18 02:37:35;;;;;;;101.35;50.08;;;5.70;83.30;;;;;;6311641;22;20299;-68
2022/03/18 02:40:02;;;;;;;132.57;56.28;;;5.60;83.60;;;;;;6309984;22;20053;-68
2022/03/18 02:42:27;;;;;;;113.18;52.47;;;5.60;83.70;;;;;;6311147;22;20377;-68
2022/03/18 02:44:54;;;;;;;151.93;57.30;;;5.60;83.90;;;;;;6311056;22;19999;-68
2022/03/18 02:47:20;;;;;;;139.98;51.10;;;5.60;84.20;;;;;;6311342;22;20056;-67
2022/03/18 02:49:46;;;;;;;123.82;52.95;;;5.60;83.60;;;;;;6311296;22;20003;-68
2022/03/18 02:52:11;;;;;;;125.68;51.28;;;5.60;84.20;;;;;;6311004;22;20090;-67
2022/03/18 02:54:38;;;;;;;117.28;49.22;;;5.60;83.80;;;;;;6282598;22;20023;-67
2022/03/18 02:57:04;;;;;;;307.10;65.78;;;5.60;83.90;;;;;;6311150;22;20022;-67
2022/03/18 02:59:30;;;;;;;132.18;49.25;;;5.50;84.40;;;;;;6311582;22;20238;-67
2022/03/18 03:01:59;;;;;;;155.57;56.85;;;5.60;83.50;;;;;;6310951;22;20003;-67
2022/03/18 03:04:25;;;;;;;109.82;48.67;;;5.50;83.60;;;;;;6310973;22;20003;-68
2022/03/18 03:09:37;;;;;;;174.10;56.25;;;5.40;83.00;;;;;;6309797;22;20054;-67
2022/03/18 03:12:03;;;;;;;107.82;47.72;;;5.50;83.30;;;;;;6311205;22;20003;-67
2022/03/18 03:14:29;;;;;;;150.13;54.55;;;5.40;83.30;;;;;;6310969;22;20261;-67
2022/03/18 03:16:58;;;;;;;164.25;53.03;;;5.40;83.10;;;;;;6310562;22;20030;-67
2022/03/18 03:19:24;;;;;;;90.65;43.30;;;5.40;83.20;;;;;;6310986;22;20003;-66
2022/03/18 03:21:49;;;;;;;154.68;54.30;;;5.40;82.80;;;;;;6310555;22;20025;-67
2022/03/18 03:24:15;;;;;;;153.90;55.08;;;5.40;82.90;;;;;;6308987;22;20003;-67
2022/03/18 03:26:41;;;;;;;164.73;53.75;;;5.40;82.60;;;;;;6310361;22;20027;-68
2022/03/18 03:29:07;;;;;;;115.13;50.83;;;5.50;82.30;;;;;;6310070;22;20310;-68
2022/03/18 03:31:33;;;;;;;335.80;65.28;;;5.40;82.70;;;;;;6309986;22;20004;-68
2022/03/18 03:34:02;;;;;;;237.27;63.78;;;5.40;82.80;;;;;;6310564;22;20238;-68
2022/03/18 03:36:28;;;;;;;195.93;57.13;;;5.30;82.80;;;;;;6309754;22;20065;-66
2022/03/18 03:38:53;;;;;;;181.98;54.50;;;5.30;82.10;;;;;;6310650;22;19999;-66
2022/03/18 03:41:21;;;;;;;184.07;55.20;;;5.40;82.00;;;;;;6308472;22;20003;-65
2022/03/18 03:43:50;;;;;;;184.35;53.67;;;5.30;82.30;;;;;;6310669;22;20018;-66
2022/03/18 03:46:18;;;;;;;142.25;57.47;;;5.30;82.00;;;;;;6309653;22;20007;-65
2022/03/18 03:48:44;;;;;;;98.38;47.97;;;5.30;82.10;;;;;;6310501;22;19999;-68
2022/03/18 03:51:09;;;;;;;128.15;50.15;;;5.30;82.10;;;;;;6310131;22;20120;-67
2022/03/18 03:53:38;;;;;;;193.98;57.83;;;5.30;82.20;;;;;;6309679;22;19996;-66
2022/03/18 03:56:04;;;;;;;242.18;64.50;;;5.30;81.60;;;;;;6307713;22;20324;-67
2022/03/18 03:58:29;;;;;;;198.40;61.33;;;5.30;82.00;;;;;;6310438;22;20002;-67
2022/03/18 04:00:55;;;;;;;112.90;50.90;;;5.20;81.70;;;;;;6309719;22;20009;-66
2022/03/18 04:03:22;;;;;;;163.30;58.05;;;5.20;81.60;;;;;;6310357;22;20417;-67
2022/03/18 04:05:48;;;;;;;210.90;60.80;;;5.20;81.80;;;;;;6309787;22;20015;-67
2022/03/18 04:08:17;;;;;;;298.23;68.70;;;5.20;81.70;;;;;;6310537;22;20396;-68
2022/03/18 04:10:42;;;;;;;160.40;55.75;;;5.20;81.60;;;;;;6309432;22;20003;-68
2022/03/18 04:13:09;;;;;;;125.65;53.03;;;5.10;81.70;;;;;;6309096;22;20007;-67
2022/03/18 04:15:34;;;;;;;178.88;58.95;;;5.10;81.60;;;;;;6310726;22;19996;-68
2022/03/18 04:18:03;;;;;;;198.25;61.05;;;5.20;81.30;;;;;;6310293;22;19999;-68
2022/03/18 04:20:30;;;;;;;93.80;49.25;;;5.20;81.70;;;;;;6310622;22;20306;-67
2022/03/18 04:22:55;;;;;;;97.78;48.60;;;5.20;81.40;;;;;;6283607;22;20010;-68
2022/03/18 04:25:21;;;;;;;147.48;55.03;;;5.20;81.30;;;;;;6309109;22;20000;-68
2022/03/18 04:27:47;;;;;;;131.23;52.10;;;5.20;81.50;;;;;;6310425;22;20269;-67
2022/03/18 04:30:13;;;;;;;173.02;59.97;;;5.20;81.30;;;;;;6310024;22;20010;-68
2022/03/18 04:32:40;;;;;;;89.88;47.15;;;5.20;81.40;;;;;;6310311;22;20006;-68
2022/03/18 04:35:11;;;;;;;142.20;53.10;;;5.20;81.20;;;;;;6310679;22;20060;-67
2022/03/18 04:37:39;;;;;;;109.15;50.30;;;5.20;81.60;;;;;;6310477;22;20007;-67
2022/03/18 04:40:06;;;;;;;148.82;57.97;;;5.20;81.70;;;;;;6309197;22;20268;-67
2022/03/18 04:42:34;;;;;;;126.90;51.88;;;5.10;81.50;;;;;;6310318;22;20004;-68
2022/03/18 04:45:00;;;;;;;84.78;44.63;;;5.10;81.40;;;;;;6283037;22;20018;-67
2022/03/18 04:47:27;;;;;;;129.55;51.78;;;5.20;81.20;;;;;;6310323;22;20007;-68
2022/03/18 04:49:56;;;;;;;198.15;61.38;;;5.20;81.60;;;;;;6283967;22;20061;-67
2022/03/18 04:52:21;;;;;;;105.65;51.25;;;5.10;81.90;;;;;;6310281;22;19996;-68
2022/03/18 04:54:47;;;;;;;124.53;49.42;;;5.10;81.70;;;;;;6308820;22;20053;-68
2022/03/18 04:57:16;;;;;;;120.45;50.88;;;5.20;81.60;;;;;;6308943;22;20090;-67
2022/03/18 04:59:46;;;;;;;143.00;52.35;;;5.20;81.60;;;;;;6310006;22;20003;-67
2022/03/18 05:02:13;;;;;;;159.80;56.17;;;5.20;82.00;;;;;;6310041;22;20003;-67
2022/03/18 05:04:41;;;;;;;109.30;49.15;;;5.10;82.10;;;;;;6310129;22;20035;-67
2022/03/18 05:07:07;;;;;;;96.70;45.45;;;5.10;82.20;;;;;;6309697;22;20023;-68
2022/03/18 05:09:33;;;;;;;120.40;50.95;;;5.10;81.80;;;;;;6307910;22;20050;-67
2022/03/18 05:11:59;;;;;;;136.90;56.67;;;5.10;81.80;;;;;;6310146;22;20311;-68
2022/03/18 05:14:25;;;;;;;143.13;56.65;;;5.10;82.10;;;;;;6309759;22;20003;-67
2022/03/18 05:16:52;;;;;;;154.43;60.17;;;5.10;81.90;;;;;;6309392;22;19999;-67
2022/03/18 05:19:18;;;;;;;135.80;55.97;;;5.10;82.10;;;;;;6282845;22;20014;-67
2022/03/18 05:21:46;;;;;;;109.88;50.67;;;5.10;82.00;;;;;;6310090;22;19999;-67
2022/03/18 05:24:11;;;;;;;142.30;59.53;;;5.10;82.30;;;;;;6281756;22;20008;-66
2022/03/18 05:26:37;;;;;;;181.63;60.80;;;5.10;82.20;;;;;;6309698;22;20000;-67
2022/03/18 05:29:06;;;;;;;87.65;47.30;;;5.10;82.10;;;;;;6309542;22;20014;-68
2022/03/18 05:31:32;;;;;;;118.97;52.83;;;5.10;81.70;;;;;;6308006;22;20003;-67
2022/03/18 05:34:00;;;;;;;125.70;53.72;;;5.10;82.20;;;;;;6310182;22;19999;-68
2022/03/18 05:36:26;;;;;;;130.30;54.00;;;5.10;82.20;;;;;;6310378;22;20070;-67
2022/03/18 05:38:52;;;;;;;101.05;48.72;;;5.10;82.20;;;;;;6283013;22;20019;-68
2022/03/18 05:41:18;;;;;;;131.15;54.20;;;5.10;82.20;;;;;;6308373;22;20261;-68
2022/03/18 05:43:43;;;;;;;157.80;58.47;;;5.00;82.30;;;;;;6310416;22;20129;-68
2022/03/18 05:46:11;;;;;;;162.07;61.40;;;5.00;82.30;;;;;;6310033;22;20075;-68
2022/03/18 05:48:37;;;;;;;162.48;64.40;;;5.10;82.00;;;;;;6282715;22;20238;-67
2022/03/18 05:51:03;;;;;;;135.18;54.92;;;5.00;82.20;;;;;;6309824;22;20044;-67
2022/03/18 05:53:29;;;;;;;137.65;55.58;;;5.10;82.10;;;;;;6309139;22;20090;-65
2022/03/18 05:58:41;;;;;;;153.07;60.60;;;5.00;82.40;;;;;;6308863;22;20284;-66
2022/03/18 06:01:07;;;;;;;126.50;54.72;;;5.00;82.10;;;;;;6308681;22;20311;-68
2022/03/18 06:03:33;;;;;;;146.88;59.50;;;5.10;82.20;;;;;;6309147;22;20023;-67
2022/03/18 06:05:59;;;;;;;124.07;53.40;;;5.10;82.20;;;;;;6308980;22;20007;-68
2022/03/18 06:13:53;;;;;;;175.50;60.55;;;5.10;82.30;;;;;;6312322;22;20014;-68
2022/03/18 06:16:19;;;;;;;108.13;51.83;;;5.10;82.10;;;;;;6312211;22;20007;-67
2022/03/18 06:18:44;;;;;;;100.60;49.35;;;5.10;82.30;;;;;;6312153;22;20044;-66
2022/03/18 06:21:15;;;;;;;129.88;56.22;;;5.10;81.80;;;;;;6312015;22;20009;-68
2022/03/18 06:23:41;;;;;;;141.38;57.38;;;5.10;82.50;;;;;;6312530;22;20238;-68
2022/03/18 06:26:06;;;;;;;128.50;57.85;;;5.10;82.90;;;;;;6311152;22;20010;-67
2022/03/18 06:28:33;;;;;;;165.95;62.50;;;5.00;82.40;;;;;;6312215;22;19999;-67
2022/03/18 06:30:59;;;;;;;139.18;60.25;;;5.00;82.50;;;;;;6311868;22;20317;-65
2022/03/18 06:33:27;;;;;;;123.25;54.58;;;5.00;82.20;;;;;;6311878;22;20308;-65
2022/03/18 06:35:53;;;;;;;170.63;63.10;;;5.00;82.10;;;;;;6312090;22;20264;-65
2022/03/18 06:38:19;;;;;;;180.20;66.20;;;5.00;82.40;;;;;;6311910;22;20031;-65
2022/03/18 06:40:44;;;;;;;154.75;62.58;;;5.00;82.40;;;;;;6310493;22;20007;-65
2022/03/18 06:43:10;;;;;;;114.70;53.30;;;5.00;82.10;;;;;;6312064;22;20042;-67
2022/03/18 06:45:35;;;;;;;125.50;55.30;;;5.00;82.50;;;;;;6311220;22;19999;-67
2022/03/18 06:48:01;;;;;;;130.00;55.90;;;5.00;82.20;;;;;;6311134;22;20004;-68
2022/03/18 06:50:27;;;;;;;111.30;52.30;;;5.00;82.60;;;;;;6284304;22;20360;-67
2022/03/18 06:52:56;;;;;;;177.82;65.22;;;5.10;82.80;;;;;;6311285;22;19995;-68
2022/03/18 06:55:21;;;;;;;152.88;63.33;;;5.10;82.70;;;;;;6310239;22;19999;-67
2022/03/18 06:57:47;;;;;;;141.88;61.42;;;5.10;82.30;;;;;;6311268;22;20006;-67
2022/03/18 07:00:13;;;;;;;125.38;53.75;;;5.10;82.80;;;;;;6310283;22;20391;-67
2022/03/18 07:02:41;;;;;;;111.63;53.55;;;5.10;82.80;;;;;;6311287;22;19999;-67
2022/03/18 07:05:10;;;;;;;133.73;59.60;;;5.10;82.70;;;;;;6311531;22;20071;-66
2022/03/18 07:07:36;;;;;;;137.57;57.75;;;5.10;83.30;;;;;;6310991;22;20019;-68
2022/03/18 07:10:02;;;;;;;118.03;53.90;;;5.10;83.50;;;;;;6310074;22;20393;-67
2022/03/18 07:12:30;;;;;;;118.25;56.75;;;5.10;83.30;;;;;;6308300;22;19995;-65
2022/03/18 07:14:56;;;;;;;100.28;52.15;;;5.20;83.10;;;;;;6310483;22;19996;-66
2022/03/18 07:20:07;;;;;;;;;;;5.20;83.90;;;;;;6311905;22;20060;-67
2022/03/18 07:22:32;;;;;;;105.32;52.80;;;5.20;83.90;;;;;;6311020;22;19906;-67
2022/03/18 07:25:00;;;;;;;104.95;52.47;;;5.20;84.30;;;;;;6309519;22;19999;-67
2022/03/18 07:27:27;;;;;;;120.47;56.15;;;5.20;84.70;;;;;;6311583;22;20003;-66
2022/03/18 07:29:53;;;;;;;121.50;56.78;;;5.20;85.80;;;;;;6311526;22;20264;-67
2022/03/18 07:32:19;;;;;;;99.40;52.22;;;5.20;85.30;;;;;;6311694;22;20078;-67
2022/03/18 07:34:47;;;;;;;110.93;54.90;;;5.20;86.30;;;;;;6311650;22;20003;-67
2022/03/18 07:37:13;;;;;;;96.38;52.45;;;5.20;86.10;;;;;;6311293;22;19995;-67
2022/03/18 07:39:38;;;;;;;90.95;51.25;;;5.30;85.60;;;;;;6309974;22;20010;-67
2022/03/18 07:42:04;;;;;;;98.78;51.75;;;5.40;85.60;;;;;;6311777;22;20003;-67
2022/03/18 07:44:36;;;;;;;113.78;58.30;;;5.40;86.60;;;;;;6311224;22;20268;-67
2022/03/18 07:47:04;;;;;;;119.03;56.20;;;5.40;87.00;;;;;;6311403;22;20008;-67
2022/03/18 07:49:33;;;;;;;115.10;55.92;;;5.40;87.50;;;;;;6310951;22;20011;-67
2022/03/18 07:51:58;;;;;;;121.78;58.83;;;5.40;87.10;;;;;;6310756;22;20075;-66
2022/03/18 07:54:24;;;;;;;108.90;55.55;;;5.50;88.00;;;;;;6309614;22;20031;-67
2022/03/18 07:56:51;;;;;;;98.70;54.00;;;5.50;88.90;;;;;;6311309;22;20038;-68
2022/03/18 07:59:16;;;;;;;105.45;53.50;;;5.40;89.10;;;;;;6311269;22;20003;-66
2022/03/18 08:01:42;;;;;;;96.47;52.28;;;5.60;89.20;;;;;;6310937;22;20246;-68
2022/03/18 08:04:12;;;;;;;88.30;51.67;;;5.70;88.90;;;;;;6311551;22;20004;-67
2022/03/18 08:06:37;;;;;;;109.38;56.60;;;5.90;89.10;;;;;;6278455;22;20020;-66
2022/03/18 08:09:04;;;;;;;90.25;50.50;;;5.90;90.90;;;;;;6280328;22;20346;-68
2022/03/18 08:11:30;;;;;;;87.35;48.72;;;6.00;91.30;;;;;;6277063;22;20004;-67
2022/03/18 08:13:55;;;;;;;106.70;55.33;;;6.10;92.60;;;;;;6280183;22;20308;-67
2022/03/18 08:16:22;;;;;;;84.47;49.80;;;6.00;94.80;;;;;;6280412;22;20007;-68
2022/03/18 08:18:48;;;;;;;88.05;51.47;;;5.90;94.60;;;;;;6279850;22;20554;-67
2022/03/18 08:21:15;;;;;;;96.20;54.53;;;5.90;94.20;;;;;;6279983;22;19995;-67
2022/03/18 08:23:41;;;;;;;93.32;51.63;;;5.90;94.40;;;;;;6279833;22;20053;-67
2022/03/18 08:26:07;;;;;;;104.47;55.83;;;5.80;94.30;;;;;;6278422;22;20006;-67
2022/03/18 08:28:32;;;;;;;98.78;55.00;;;5.90;94.70;;;;;;6280272;22;20028;-67
2022/03/18 08:30:58;;;;;;;101.78;54.22;;;5.80;94.50;;;;;;6280134;22;20027;-67
2022/03/18 08:33:24;;;;;;;86.57;49.10;;;5.90;94.40;;;;;;6280235;22;20396;-67
2022/03/18 08:35:50;;;;;;;88.85;50.88;;;6.10;94.70;;;;;;6280448;22;20004;-67
2022/03/18 08:38:16;;;;;;;96.50;53.67;;;6.30;95.90;;;;;;6279022;22;20031;-67
2022/03/18 08:40:42;;;;;;;85.50;49.90;;;6.30;96.20;;;;;;6278575;22;20423;-67
2022/03/18 08:43:11;;;;;;;91.85;50.97;;;6.30;97.50;;;;;;6278909;22;20003;-67
2022/03/18 08:45:40;;;;;;;96.00;53.65;;;6.30;98.00;;;;;;6279627;22;20391;-68
2022/03/18 08:48:07;;;;;;;88.60;50.88;;;6.30;97.10;;;;;;6280100;22;20363;-67
2022/03/18 08:50:33;;;;;;;92.47;52.70;;;6.30;97.40;;;;;;6279533;22;20057;-67
2022/03/18 08:52:58;;;;;;;100.50;54.47;;;6.40;97.40;;;;;;6279948;22;20252;-67
2022/03/18 08:55:25;;;;;;;108.72;56.08;;;6.40;97.90;;;;;;6278493;22;20126;-67
2022/03/18 08:57:54;;;;;;;90.47;51.55;;;6.30;97.10;;;;;;6280352;22;20027;-67
2022/03/18 09:00:23;;;;;;;98.18;55.78;;;6.20;96.90;;;;;;6278958;22;20410;-67
2022/03/18 09:02:52;;;;;;;101.78;56.33;;;6.20;96.50;;;;;;6280088;22;20010;-67
2022/03/18 09:05:20;;;;;;;97.82;54.70;;;6.30;95.80;;;;;;6280920;22;20010;-67
2022/03/18 09:07:47;;;;;;;86.35;51.58;;;6.20;96.80;;;;;;6311292;22;20011;-68
2022/03/18 09:10:13;;;;;;;90.43;52.22;;;6.40;96.60;;;;;;6309287;22;20086;-67
2022/03/18 09:12:55;;;;;;;94.72;54.25;;;6.40;97.20;;;;;;6283804;22;20372;-67
2022/03/18 09:15:24;;;;;;;93.55;54.28;;;6.40;97.50;;;;;;6311358;22;20027;-67
2022/03/18 09:17:50;;;;;;;92.57;52.83;;;6.30;97.80;;;;;;6310256;22;19999;-67
2022/03/18 09:20:15;;;;;;;84.57;49.95;;;6.40;97.60;;;;;;6310918;22;20069;-67
2022/03/18 09:22:41;;;;;;;88.90;52.78;;;6.60;98.00;;;;;;6310741;22;20003;-67
2022/03/18 09:25:07;;;;;;;81.82;48.45;;;6.80;98.00;;;;;;6309327;22;20023;-65
2022/03/18 09:27:33;;;;;;;82.75;48.53;;;6.90;98.00;;;;;;6310850;22;20026;-65
2022/03/18 09:30:00;;;;;;;81.70;49.47;;;7.10;98.00;;;;;;6310821;22;19999;-65
2022/03/18 09:32:29;;;;;;;70.72;45.30;;;7.10;98.00;;;;;;6310595;22;20074;-65
2022/03/18 09:34:56;;;;;;;75.90;46.47;;;7.20;98.00;;;;;;6310859;22;20002;-65
2022/03/18 09:37:25;;;;;;;71.97;44.53;;;7.30;98.00;;;;;;6310615;22;19991;-67
2022/03/18 09:39:53;;;;;;;76.43;46.13;;;7.30;98.00;;;;;;6309447;22;20007;-68
2022/03/18 09:42:19;;;;;;;77.47;46.30;;;7.50;98.00;;;;;;6310720;22;20003;-68
2022/03/18 09:44:45;;;;;;;76.32;46.90;;;7.50;98.00;;;;;;6312192;22;20379;-68
2022/03/18 09:47:11;;;;;;;79.72;48.63;;;7.50;98.00;;;;;;6312869;22;20007;-66
2022/03/18 09:49:37;;;;;;;70.55;44.60;;;7.90;98.00;;;;;;6312397;22;19999;-67
2022/03/18 09:52:04;;;;;;;68.82;42.28;;;8.10;98.00;;;;;;6312543;22;19996;-66
2022/03/18 09:54:32;;;;;;;68.00;42.92;;;8.60;98.00;;;;;;6311276;22;20002;-67
2022/03/18 09:57:02;;;;;;;69.03;43.33;;;8.80;98.00;;;;;;6313043;22;20006;-67
2022/03/18 09:59:28;;;;;;;65.63;42.13;;;9.30;98.00;;;;;;6312768;22;20368;-67
2022/03/18 10:02:19;;;;;;;61.92;40.22;;;9.10;98.00;;;;;;6285276;22;20004;-67
2022/03/18 10:04:58;;;;;;;61.55;40.15;;;9.10;98.00;;;;;;6312363;22;20070;-67
2022/03/18 10:07:28;;;;;;;64.90;41.15;;;9.10;98.00;;;;;;6312388;22;20039;-67
2022/03/18 10:10:03;;;;;;;66.60;43.15;;;9.10;98.00;;;;;;6311002;22;20035;-67
2022/03/18 10:12:34;;;;;;;69.53;42.72;;;8.60;98.00;;;;;;6285093;22;20071;-68
2022/03/18 10:15:30;;;;;;;68.88;44.92;;;8.00;98.00;;;;;;6312540;22;20066;-67
2022/03/18 10:17:58;;;;;;;68.43;43.60;;;7.70;98.00;;;;;;6285602;22;20023;-67
2022/03/18 10:20:28;;;;;;;66.80;42.72;;;7.80;98.00;;;;;;6312147;22;20003;-67
2022/03/18 10:22:57;;;;;;;69.38;44.55;;;7.90;98.00;;;;;;6312245;22;20247;-67
2022/03/18 10:25:40;;;;;;;67.20;42.42;;;7.90;98.00;;;;;;6311017;22;20010;-67
2022/03/18 10:28:08;;;;;;;59.37;38.00;;;8.10;98.00;;;;;;6312456;22;20006;-67
2022/03/18 10:30:36;;;;;;;69.13;42.83;;;8.50;98.00;;;;;;6312083;22;20063;-66
2022/03/18 10:33:03;;;;;;;57.03;37.42;;;9.10;98.00;;;;;;6312251;22;20349;-66
2022/03/18 10:38:35;;;;;;;59.63;38.00;;;10.20;94.30;;;;;;6312272;22;20083;-67
2022/03/18 10:41:07;;;;;;;53.55;36.40;;;10.40;93.10;;;;;;6310813;22;20011;-68
2022/03/18 10:44:08;;;;;;;55.25;36.42;;;10.40;93.60;;;;;;6312321;22;20451;-66
2022/03/18 10:46:41;;;;;;;52.67;35.00;;;10.30;93.00;;;;;;6246871;22;20315;-67
2022/03/18 10:49:07;;;;;;;56.65;37.00;;;10.20;93.60;;;;;;6311742;22;20007;-67
2022/03/18 10:51:40;;;;;;;56.25;38.58;;;10.10;94.20;;;;;;6284388;22;19999;-67
2022/03/18 10:54:06;;;;;;;55.08;36.97;;;10.10;92.90;;;;;;6311828;22;19999;-67
2022/03/18 10:56:51;;;;;;;57.05;36.45;;;10.30;91.70;;;;;;6310001;22;20006;-67
2022/03/18 10:59:17;;;;;;;52.58;35.78;;;10.10;91.30;;;;;;6312091;22;20000;-67
2022/03/18 11:01:46;;;;;;;46.40;32.83;;;10.30;93.10;;;;;;6311767;22;20256;-67
2022/03/18 11:04:14;;;;;;;50.33;33.67;;;10.80;91.20;;;;;;6311407;22;20376;-66
2022/03/18 11:06:41;;;;;;;51.22;34.95;;;11.00;88.90;;;;;;6311832;22;20019;-66
2022/03/18 11:09:11;;;;;;;52.28;35.88;;;11.30;88.90;;;;;;6311801;22;20094;-66
2022/03/18 11:11:40;;;;;;;50.95;34.08;;;11.00;87.30;;;;;;6310693;22;20019;-66
2022/03/18 11:14:10;;;;;;;46.30;32.20;;;10.80;91.90;;;;;;6311694;22;20007;-67
2022/03/18 11:16:39;;;;;;;46.63;33.75;;;11.00;90.40;;;;;;6311777;22;20003;-67
2022/03/18 11:19:09;;;;;;;48.47;33.20;;;11.10;89.10;;;;;;6311762;22;20308;-68
2022/03/18 11:21:38;;;;;;;47.38;32.33;;;11.30;90.40;;;;;;6311665;22;20361;-67
2022/03/18 11:24:06;;;;;;;46.88;31.23;;;11.70;85.70;;;;;;6311695;22;20066;-67
2022/03/18 11:26:34;;;;;;;45.70;32.45;;;12.40;85.40;;;;;;6310476;22;20009;-66
2022/03/18 11:29:16;;;;;;;42.15;29.33;;;12.70;85.30;;;;;;6311322;22;20004;-67
2022/03/18 11:32:03;;;;;;;48.97;30.90;;;12.60;84.40;;;;;;6311613;22;20303;-66
2022/03/18 11:34:29;;;;;;;46.58;31.45;;;12.70;84.10;;;;;;6305964;22;19999;-66
2022/03/18 11:37:09;;;;;;;45.13;30.40;;;12.30;85.90;;;;;;6311240;22;20052;-67
2022/03/18 11:39:35;;;;;;;43.97;30.45;;;12.40;83.30;;;;;;6306247;22;20010;-66
2022/03/18 11:42:10;;;;;;;44.63;30.48;;;12.80;84.90;;;;;;6307888;22;19999;-65
2022/03/18 11:44:36;;;;;;;42.53;30.83;;;13.00;83.20;;;;;;6308129;22;20034;-67
2022/03/18 11:47:22;;;;;;;40.67;29.60;;;12.80;83.80;;;;;;6307312;22;20007;-66
2022/03/18 11:49:49;;;;;;;43.40;30.88;;;12.90;80.10;;;;;;6308118;22;20075;-65
2022/03/18 11:52:15;;;;;;;46.30;31.23;;;12.90;82.20;;;;;;6309054;22;20003;-67
2022/03/18 11:55:09;;;;;;;44.65;29.65;;;12.40;81.40;;;;;;6307004;22;20003;-66
2022/03/18 11:57:42;;;;;;;41.08;29.45;;;12.50;84.70;;;;;;6303730;22;20010;-67
2022/03/18 12:00:32;;;;;;;42.67;29.17;;;12.40;82.60;;;;;;6308513;22;20307;-66
2022/03/18 12:03:02;;;;;;;41.47;28.10;;;12.10;81.40;;;;;;6308084;22;20008;-66
2022/03/18 12:05:33;;;;;;;42.03;29.50;;;12.20;82.30;;;;;;6308651;22;20010;-66
2022/03/18 12:08:03;;;;;;;45.22;28.67;;;12.30;82.60;;;;;;6308153;22;20014;-66
2022/03/18 12:10:33;;;;;;;44.13;31.13;;;12.30;82.20;;;;;;6305930;22;20003;-66
2022/03/18 12:13:06;;;;;;;41.63;28.85;;;12.60;81.70;;;;;;6307512;22;20045;-66
2022/03/18 12:15:37;;;;;;;41.60;28.80;;;13.10;82.80;;;;;;6306876;22;20025;-65
2022/03/18 12:18:04;;;;;;;42.15;30.02;;;14.00;79.20;;;;;;6310183;22;19999;-65
2022/03/18 12:20:36;;;;;;;38.20;28.30;;;13.90;77.90;;;;;;6308843;22;20011;-65
2022/03/18 12:23:09;;;;;;;44.38;28.90;;;13.50;78.30;;;;;;6281195;22;20003;-65
2022/03/18 12:25:36;;;;;;;37.60;27.45;;;13.60;80.10;;;;;;6278995;22;20512;-64
2022/03/18 12:28:03;;;;;;;40.25;27.80;;;13.90;78.00;;;;;;6308260;22;20400;-64
2022/03/18 12:30:37;;;;;;;44.37;28.83;;;14.20;77.80;;;;;;6309807;22;20030;-65
2022/03/18 12:33:10;;;;;;;39.33;28.50;;;14.50;78.60;;;;;;6310362;22;20250;-66
2022/03/18 12:35:43;;;;;;;37.38;27.13;;;14.40;77.30;;;;;;6281616;22;20003;-66
2022/03/18 12:38:17;;;;;;;38.10;26.95;;;14.40;76.00;;;;;;6307869;22;19999;-66
2022/03/18 12:40:43;;;;;;;;;;;14.70;76.10;;;;;;6307118;22;20068;-65
2022/03/18 12:43:14;;;;;;;43.47;27.02;;;14.90;74.20;;;;;;6307700;22;20004;-66
2022/03/18 12:45:43;;;;;;;39.33;26.80;;;14.20;75.50;;;;;;6307526;22;20057;-65
2022/03/18 12:48:10;;;;;;;39.17;27.65;;;14.30;77.30;;;;;;6307982;22;20007;-66
2022/03/18 12:50:42;;;;;;;40.00;27.10;;;14.50;76.70;;;;;;6307019;22;20361;-65
2022/03/18 12:53:21;;;;;;;40.90;28.20;;;14.00;75.70;;;;;;6307110;22;19999;-65